Time;durP1;ratioP1;P1;durP2;ratioP2;P2;SDS_P1;SDS_P2;PMS_P1;PMS_P2;Temp;Humidity;BMP_temperature;BMP_pressure;BME280_temperature;BME280_humidity;BME280_pressure;Samples;Min_cycle;Max_cycle;Signal;HPM_P1;HPM_P2
2023/03/02 00:01:07;;;;;;;19.85;10.05;;;;;;;1.30;100.00;102804.72;4980614;28;20072;-77
2023/03/02 00:03:34;;;;;;;22.38;11.57;;;;;;;1.31;100.00;102808.22;5000340;28;20034;-77
2023/03/02 00:06:00;;;;;;;21.02;10.40;;;;;;;1.29;100.00;102805.56;4983461;28;20032;-77
2023/03/02 00:08:26;;;;;;;20.60;9.93;;;;;;;1.28;100.00;102800.31;5001593;28;20061;-77
2023/03/02 00:10:53;;;;;;;23.42;10.93;;;;;;;1.28;100.00;102808.13;4981751;28;20903;-77
2023/03/02 00:13:19;;;;;;;23.25;10.82;;;;;;;1.29;100.00;102802.06;4959340;28;20541;-77
2023/03/02 00:15:44;;;;;;;22.05;10.40;;;;;;;1.30;100.00;102807.34;4976047;28;20042;-77
2023/03/02 00:18:10;;;;;;;19.88;10.00;;;;;;;1.33;100.00;102796.97;4997346;28;20042;-77
2023/03/02 00:20:35;;;;;;;20.73;10.85;;;;;;;1.35;100.00;102804.81;4998763;28;20049;-77
2023/03/02 00:23:01;;;;;;;20.30;10.23;;;;;;;1.37;100.00;102790.09;4980436;28;20923;-77
2023/03/02 00:25:27;;;;;;;24.50;11.07;;;;;;;1.38;100.00;102791.88;5000846;28;20505;-77
2023/03/02 00:27:53;;;;;;;23.05;10.73;;;;;;;1.40;100.00;102786.66;4946246;28;20333;-77
2023/03/02 00:30:18;;;;;;;22.90;11.02;;;;;;;1.39;100.00;102791.03;4998746;28;20041;-77
2023/03/02 00:32:44;;;;;;;22.27;10.93;;;;;;;1.39;100.00;102779.69;4978678;28;20530;-76
2023/03/02 00:35:10;;;;;;;20.77;10.35;;;;;;;1.39;100.00;102775.34;4990714;28;20051;-76
2023/03/02 00:37:36;;;;;;;23.58;10.43;;;;;;;1.39;100.00;102774.47;4971230;28;21479;-76
2023/03/02 00:40:08;;;;;;;20.30;10.32;;;;;;;1.39;100.00;102770.13;4980574;28;20060;-76
2023/03/02 00:42:35;;;;;;;26.65;12.13;;;;;;;1.36;100.00;102775.25;4960420;28;20033;-76
2023/03/02 00:45:01;;;;;;;27.50;11.30;;;;;;;1.35;100.00;102771.78;4958215;28;20091;-76
2023/03/02 00:47:28;;;;;;;23.25;11.02;;;;;;;1.34;100.00;102771.75;4996437;28;20033;-76
2023/03/02 00:49:54;;;;;;;24.40;11.55;;;;;;;1.32;100.00;102769.09;4997666;28;20839;-77
2023/03/02 00:52:20;;;;;;;25.10;11.93;;;;;;;1.31;100.00;102763.84;4996737;28;20167;-77
2023/03/02 00:54:45;;;;;;;27.48;12.73;;;;;;;1.29;100.00;102763.81;4972868;28;20476;-77
2023/03/02 00:57:11;;;;;;;24.85;11.48;;;;;;;1.24;100.00;102762.81;4999018;28;20041;-77
2023/03/02 00:59:37;;;;;;;27.27;12.52;;;;;;;1.21;100.00;102761.00;4993840;28;20033;-76
2023/03/02 01:02:04;;;;;;;32.60;13.32;;;;;;;1.23;100.00;102768.88;4961281;28;20041;-77
2023/03/02 01:04:38;;;;;;;26.85;11.82;;;;;;;1.22;100.00;102762.75;4976057;28;20126;-77
2023/03/02 01:07:07;;;;;;;24.25;11.35;;;;;;;1.18;100.00;102755.72;4986393;28;20045;-77
2023/03/02 01:09:33;;;;;;;28.10;12.48;;;;;;;1.15;100.00;102747.81;4978668;28;20040;-76
2023/03/02 01:11:58;;;;;;;27.10;12.15;;;;;;;1.12;100.00;102747.75;4998920;28;20473;-77
2023/03/02 01:14:24;;;;;;;29.05;13.10;;;;;;;1.15;100.00;102749.56;4991438;28;20052;-77
2023/03/02 01:16:50;;;;;;;29.70;12.82;;;;;;;1.15;100.00;102753.03;4985920;28;20037;-77
2023/03/02 01:19:16;;;;;;;31.70;13.57;;;;;;;1.15;100.00;102747.81;4972481;28;20038;-77
2023/03/02 01:21:42;;;;;;;31.98;13.02;;;;;;;1.11;100.00;102745.97;4997085;28;20042;-77
2023/03/02 01:24:08;;;;;;;36.15;14.63;;;;;;;1.10;100.00;102738.09;4994621;28;20028;-77
2023/03/02 01:26:34;;;;;;;34.60;15.10;;;;;;;1.07;100.00;102737.19;4999258;28;20152;-77
2023/03/02 01:29:00;;;;;;;36.95;15.55;;;;;;;1.05;100.00;102738.00;4971290;28;20029;-76
2023/03/02 01:31:28;;;;;;;36.30;15.73;;;;;;;1.03;100.00;102740.56;4999698;28;20729;-77
2023/03/02 01:33:53;;;;;;;37.25;16.40;;;;;;;1.03;100.00;102737.09;4993700;28;21669;-76
2023/03/02 01:36:20;;;;;;;39.50;16.33;;;;;;;1.07;100.00;102737.19;4998525;28;20038;-76
2023/03/02 01:38:46;;;;;;;42.03;16.50;;;;;;;1.06;100.00;102729.31;4982242;28;20396;-77
2023/03/02 01:41:12;;;;;;;40.22;16.52;;;;;;;1.06;100.00;102725.00;4979585;28;20030;-77
2023/03/02 01:43:38;;;;;;;41.60;17.27;;;;;;;1.09;100.00;102718.94;4977436;28;20044;-77
2023/03/02 01:46:08;;;;;;;39.08;16.23;;;;;;;1.10;100.00;102714.63;4999748;28;20037;-77
2023/03/02 01:48:41;;;;;;;43.38;17.33;;;;;;;1.10;100.00;102707.69;4962499;28;20503;-76
2023/03/02 01:51:06;;;;;;;;;;;;;;;1.10;100.00;102710.31;4967227;28;20033;-77
2023/03/02 01:53:45;;;;;;;33.03;14.63;;;;;;;1.08;100.00;102704.16;4977503;28;19967;-77
2023/03/02 01:56:18;;;;;;;35.78;15.48;;;;;;;1.05;100.00;102704.94;4994651;28;20135;-77
2023/03/02 01:58:45;;;;;;;35.78;15.82;;;;;;;1.03;100.00;102704.03;4975816;28;20036;-77
2023/03/02 02:01:14;;;;;;;39.97;16.17;;;;;;;1.04;100.00;102711.00;4963175;28;20048;-77
2023/03/02 02:03:45;;;;;;;36.58;15.85;;;;;;;1.03;100.00;102706.66;4983460;28;20507;-77
2023/03/02 02:06:25;;;;;;;40.80;17.30;;;;;;;1.05;100.00;102706.69;4967959;28;20161;-77
2023/03/02 02:08:53;;;;;;;33.53;15.73;;;;;;;1.03;100.00;102706.66;4972302;28;20041;-76
2023/03/02 02:11:18;;;;;;;37.83;15.50;;;;;;;1.02;100.00;102707.50;4975394;28;20038;-77
2023/03/02 02:13:44;;;;;;;33.70;14.77;;;;;;;1.02;100.00;102707.50;4973940;28;20503;-77
2023/03/02 02:16:10;;;;;;;30.02;14.20;;;;;;;1.03;100.00;102708.41;4975490;28;20159;-77
2023/03/02 02:18:38;;;;;;;23.83;11.45;;;;;;;1.00;100.00;102708.31;4952844;28;20030;-76
2023/03/02 02:21:04;;;;;;;26.23;12.00;;;;;;;0.96;100.00;102711.69;4973891;28;20040;-77
2023/03/02 02:23:33;;;;;;;20.77;9.95;;;;;;;0.90;100.00;102708.09;4969582;28;20037;-77
2023/03/02 02:26:04;;;;;;;21.77;9.93;;;;;;;0.89;100.00;102708.94;4972624;28;20132;-77
2023/03/02 02:28:41;;;;;;;17.38;9.27;;;;;;;0.87;100.00;102704.53;4993657;28;20526;-77
2023/03/02 02:31:27;;;;;;;20.55;9.85;;;;;;;0.86;100.00;102711.44;4995061;28;20720;-77
2023/03/02 02:33:56;;;;;;;15.60;8.02;;;;;;;0.85;100.00;102701.88;4958432;28;20064;-77
2023/03/02 02:36:25;;;;;;;19.40;9.43;;;;;;;0.85;100.00;102708.78;4993669;28;21492;-77
2023/03/02 02:38:53;;;;;;;19.02;8.80;;;;;;;0.79;100.00;102702.59;4977258;28;20737;-77
2023/03/02 02:41:28;;;;;;;20.88;9.15;;;;;;;0.77;100.00;102700.78;4971544;28;20041;-77
2023/03/02 02:43:54;;;;;;;21.88;9.80;;;;;;;0.73;100.00;102694.63;4985698;28;20413;-77
2023/03/02 02:46:20;;;;;;;18.75;9.45;;;;;;;0.71;100.00;102695.41;4975248;28;20162;-77
2023/03/02 02:48:45;;;;;;;19.60;8.98;;;;;;;0.69;100.00;102697.13;4955875;28;20388;-77
2023/03/02 02:51:17;;;;;;;19.67;8.93;;;;;;;0.72;100.00;102698.06;4993920;28;20034;-77
2023/03/02 02:53:57;;;;;;;21.17;9.75;;;;;;;0.75;100.00;102702.47;4940998;28;20049;-77
2023/03/02 02:56:28;;;;;;;19.23;8.45;;;;;;;0.77;100.00;102706.00;4996007;28;20044;-77
2023/03/02 02:58:55;;;;;;;21.58;9.93;;;;;;;0.74;100.00;102700.69;4960130;28;20041;-77
2023/03/02 03:01:24;;;;;;;20.02;9.18;;;;;;;0.77;100.00;102699.06;4980511;28;20034;-77
2023/03/02 03:03:53;;;;;;;24.25;10.88;;;;;;;0.79;100.00;102693.88;4970117;28;20053;-77
2023/03/02 03:06:24;;;;;;;21.40;9.40;;;;;;;0.79;100.00;102689.56;4998181;28;20743;-77
2023/03/02 03:08:54;;;;;;;22.05;9.50;;;;;;;0.79;100.00;102699.09;4995247;28;20041;-77
2023/03/02 03:11:23;;;;;;;22.10;9.20;;;;;;;0.76;100.00;102696.44;4995310;28;20477;-77
2023/03/02 03:14:09;;;;;;;23.38;10.18;;;;;;;0.73;100.00;102699.84;4976477;28;20038;-77
2023/03/02 03:16:37;;;;;;;17.60;8.98;;;;;;;0.70;100.00;102694.53;4996053;28;20034;-77
2023/03/02 03:19:22;;;;;;;23.42;9.80;;;;;;;0.68;100.00;102688.41;4975128;28;20041;-77
2023/03/02 03:21:50;;;;;;;21.13;9.30;;;;;;;0.66;100.00;102688.34;4999592;28;20040;-77
2023/03/02 03:24:17;;;;;;;19.75;9.55;;;;;;;0.70;100.00;102685.84;4994541;28;20128;-77
2023/03/02 03:26:42;;;;;;;18.55;8.77;;;;;;;0.69;100.00;102682.34;4998139;28;20045;-77
2023/03/02 03:29:09;;;;;;;17.95;8.48;;;;;;;0.64;100.00;102682.22;4978678;28;20099;-77
2023/03/02 03:31:34;;;;;;;21.55;9.32;;;;;;;0.60;100.00;102682.13;4981276;28;20107;-77
2023/03/02 03:34:00;;;;;;;21.98;9.32;;;;;;;0.58;100.00;102679.47;4980257;28;20044;-76
2023/03/02 03:36:27;;;;;;;19.20;9.10;;;;;;;0.59;100.00;102680.34;4994641;28;20582;-76
2023/03/02 03:38:53;;;;;;;19.25;9.25;;;;;;;0.60;100.00;102682.13;4981694;28;20029;-76
2023/03/02 03:41:19;;;;;;;18.85;9.38;;;;;;;0.58;100.00;102687.28;5003301;28;20683;-75
2023/03/02 03:43:44;;;;;;;21.00;9.85;;;;;;;0.53;100.00;102684.56;4980023;28;20065;-76
2023/03/02 03:46:10;;;;;;;19.15;8.70;;;;;;;0.48;100.00;102683.56;4964659;28;20479;-76
2023/03/02 03:48:36;;;;;;;21.15;9.90;;;;;;;0.43;100.00;102685.16;4971069;28;20475;-76
2023/03/02 03:51:01;;;;;;;20.77;9.63;;;;;;;0.41;100.00;102692.06;4945291;28;20061;-76
2023/03/02 03:53:27;;;;;;;21.70;9.23;;;;;;;0.35;100.00;102692.78;5004438;28;20049;-76
2023/03/02 03:55:52;;;;;;;22.48;9.70;;;;;;;0.31;100.00;102687.41;4981963;28;20391;-76
2023/03/02 03:58:18;;;;;;;22.63;10.23;;;;;;;0.28;100.00;102684.75;5005319;28;20034;-76
2023/03/02 04:00:46;;;;;;;18.48;9.45;;;;;;;0.29;100.00;102686.50;5000303;28;20054;-76
2023/03/02 04:03:15;;;;;;;23.02;10.80;;;;;;;0.28;100.00;102685.63;5004389;28;20484;-76
2023/03/02 04:05:41;;;;;;;20.30;9.85;;;;;;;0.28;100.00;102692.56;5004749;28;20038;-76
2023/03/02 04:08:07;;;;;;;27.88;10.50;;;;;;;0.28;100.00;102700.38;4998693;28;20112;-76
2023/03/02 04:10:33;;;;;;;25.90;11.13;;;;;;;0.27;100.00;102699.47;4978516;28;20042;-76
2023/03/02 04:13:00;;;;;;;27.13;10.82;;;;;;;0.27;100.00;102691.66;4992298;28;21720;-76
2023/03/02 04:15:25;;;;;;;24.98;11.30;;;;;;;0.27;100.00;102686.47;4963613;28;20405;-76
2023/03/02 04:17:51;;;;;;;25.13;10.45;;;;;;;0.28;100.00;102690.84;4995674;28;20064;-76
2023/03/02 04:20:19;;;;;;;28.65;11.60;;;;;;;0.31;100.00;102697.84;4960619;28;20041;-76
2023/03/02 04:22:46;;;;;;;25.73;11.80;;;;;;;0.32;100.00;102695.28;4977923;28;20038;-76
2023/03/02 04:25:13;;;;;;;30.60;12.27;;;;;;;0.32;100.00;102697.91;4996864;28;20033;-76
2023/03/02 04:27:39;;;;;;;25.50;10.63;;;;;;;0.30;100.00;102690.88;4995848;28;20257;-76
2023/03/02 04:30:06;;;;;;;28.20;11.90;;;;;;;0.26;100.00;102682.09;4977491;28;20480;-76
2023/03/02 04:32:31;;;;;;;26.52;11.18;;;;;;;0.23;100.00;102687.22;4981624;28;21397;-76
2023/03/02 04:34:57;;;;;;;27.52;9.88;;;;;;;0.20;100.00;102679.31;4980171;28;20169;-76
2023/03/02 04:37:22;;;;;;;29.58;12.02;;;;;;;0.18;100.00;102683.59;4997389;28;20143;-76
2023/03/02 04:39:50;;;;;;;31.35;11.88;;;;;;;0.16;100.00;102686.16;4994234;28;20029;-76
2023/03/02 04:42:19;;;;;;;28.83;10.98;;;;;;;0.15;100.00;102683.53;5001039;28;20313;-76
2023/03/02 04:44:46;;;;;;;29.38;10.90;;;;;;;0.15;100.00;102693.97;4973323;28;20936;-76
2023/03/02 04:47:11;;;;;;;28.27;11.77;;;;;;;0.15;100.00;102686.16;4999740;28;20040;-76
2023/03/02 04:49:37;;;;;;;28.88;11.43;;;;;;;0.16;100.00;102695.72;4994584;28;20497;-76
2023/03/02 04:52:03;;;;;;;38.30;13.30;;;;;;;0.20;100.00;102692.34;4998789;28;20561;-76
2023/03/02 04:54:29;;;;;;;27.10;11.88;;;;;;;0.22;100.00;102698.50;4974148;28;20452;-76
2023/03/02 04:56:55;;;;;;;33.95;12.43;;;;;;;0.23;100.00;102695.03;4977558;28;21544;-76
2023/03/02 04:59:26;;;;;;;29.25;10.98;;;;;;;0.21;100.00;102700.22;4977149;28;20036;-76
2023/03/02 05:01:53;;;;;;;35.97;11.77;;;;;;;0.21;100.00;102696.75;4979416;28;20642;-76
2023/03/02 05:04:19;;;;;;;37.53;12.55;;;;;;;0.19;100.00;102691.47;4967235;28;20049;-76
2023/03/02 05:06:44;;;;;;;38.28;13.73;;;;;;;0.15;100.00;102688.75;4997113;28;20111;-76
2023/03/02 05:09:10;;;;;;;28.23;11.80;;;;;;;0.15;100.00;102686.16;4975562;28;20029;-76
2023/03/02 05:11:36;;;;;;;33.80;11.63;;;;;;;0.16;100.00;102682.69;4972668;28;20874;-76
2023/03/02 05:14:05;;;;;;;37.28;13.43;;;;;;;0.17;100.00;102687.06;4976779;28;20041;-76
2023/03/02 05:16:32;;;;;;;42.75;14.63;;;;;;;0.17;100.00;102687.06;4976367;28;20389;-76
2023/03/02 05:18:59;;;;;;;58.63;15.35;;;;;;;0.17;100.00;102690.56;4976259;28;20344;-76
2023/03/02 05:21:25;;;;;;;45.00;14.45;;;;;;;0.17;100.00;102690.56;4993639;28;20628;-76
2023/03/02 05:23:51;;;;;;;48.33;15.35;;;;;;;0.18;100.00;102694.03;4994242;28;20045;-76
2023/03/02 05:26:17;;;;;;;38.60;15.35;;;;;;;0.15;100.00;102689.63;4990394;28;20353;-76
2023/03/02 05:28:43;;;;;;;56.70;14.98;;;;;;;0.16;100.00;102688.78;4997264;28;20064;-76
2023/03/02 05:31:11;;;;;;;50.15;14.52;;;;;;;0.16;100.00;102687.91;4976439;28;20033;-76
2023/03/02 05:33:37;;;;;;;57.72;16.08;;;;;;;0.16;100.00;102687.91;4973682;28;20037;-76
2023/03/02 05:36:02;;;;;;;61.35;15.70;;;;;;;0.14;100.00;102693.06;4996713;28;20033;-76
2023/03/02 05:38:30;;;;;;;54.53;16.00;;;;;;;0.13;100.00;102686.09;5003120;28;20615;-76
2023/03/02 05:40:58;;;;;;;75.38;15.45;;;;;;;0.07;100.00;102689.44;5002527;28;20084;-76
2023/03/02 05:43:24;;;;;;;56.25;15.82;;;;;;;0.03;100.00;102691.88;4976173;28;20739;-76
2023/03/02 05:45:49;;;;;;;67.95;14.20;;;;;;;-0.01;100.00;102685.69;5001297;28;20625;-76
2023/03/02 05:48:15;;;;;;;60.97;14.05;;;;;;;-0.04;100.00;102694.28;5003584;28;20738;-76
2023/03/02 05:50:40;;;;;;;56.70;14.52;;;;;;;-0.06;100.00;102685.56;5001695;28;20139;-76
2023/03/02 05:53:06;;;;;;;56.55;12.95;;;;;;;-0.06;100.00;102685.56;4981590;28;20115;-76
2023/03/02 05:55:35;;;;;;;49.53;13.82;;;;;;;-0.06;100.00;102680.34;5001712;28;20040;-76
2023/03/02 05:58:11;;;;;;;65.05;16.08;;;;;;;-0.06;100.00;102685.56;5002858;28;20065;-76
2023/03/02 06:00:37;;;;;;;63.63;15.40;;;;;;;-0.05;100.00;102691.69;4982097;28;20047;-77
2023/03/02 06:03:02;;;;;;;54.50;14.80;;;;;;;-0.04;100.00;102693.44;4984832;28;20060;-76
2023/03/02 06:05:28;;;;;;;45.30;15.07;;;;;;;-0.06;100.00;102696.00;4997979;28;20517;-76
2023/03/02 06:07:53;;;;;;;61.08;16.20;;;;;;;-0.07;100.00;102694.22;4980867;28;20045;-76
2023/03/02 06:10:19;;;;;;;58.22;14.80;;;;;;;-0.04;100.00;102696.03;4959577;28;20753;-76
2023/03/02 06:12:44;;;;;;;41.42;14.35;;;;;;;-0.04;100.00;102693.44;4975845;28;20064;-76
2023/03/02 06:15:10;;;;;;;47.08;13.60;;;;;;;-0.04;100.00;102689.09;4972661;28;20439;-77
2023/03/02 06:17:36;;;;;;;50.40;12.93;;;;;;;-0.06;100.00;102696.00;4956701;28;20068;-76
2023/03/02 06:20:05;;;;;;;47.20;15.75;;;;;;;-0.10;100.00;102704.56;4946389;28;20296;-77
2023/03/02 06:22:30;;;;;;;40.13;12.73;;;;;;;-0.12;100.00;102703.63;4972746;28;20684;-77
2023/03/02 06:24:56;;;;;;;38.15;12.88;;;;;;;-0.11;100.00;102702.78;4972808;28;20036;-77
2023/03/02 06:27:21;;;;;;;39.67;13.75;;;;;;;-0.12;100.00;102700.16;4971570;28;20162;-77
2023/03/02 06:29:47;;;;;;;42.78;12.85;;;;;;;-0.11;100.00;102701.91;4996247;28;20094;-77
2023/03/02 06:32:12;;;;;;;39.22;12.95;;;;;;;-0.08;100.00;102704.59;4977582;28;20677;-77
2023/03/02 06:34:38;;;;;;;37.92;12.20;;;;;;;-0.05;100.00;102697.75;4992446;28;20043;-77
2023/03/02 06:37:04;;;;;;;39.38;13.70;;;;;;;-0.04;100.00;102704.72;4997300;28;20476;-77
2023/03/02 06:39:29;;;;;;;41.03;11.75;;;;;;;-0.06;100.00;102702.94;4995909;28;20035;-76
2023/03/02 06:41:55;;;;;;;49.60;13.98;;;;;;;-0.11;100.00;102707.13;4997769;28;20048;-75
2023/03/02 06:44:20;;;;;;;48.00;13.93;;;;;;;-0.15;100.00;102701.81;4999040;28;20397;-76
2023/03/02 06:46:46;;;;;;;46.50;14.60;;;;;;;-0.11;100.00;102710.59;4995348;28;20038;-76
2023/03/02 06:49:12;;;;;;;45.17;13.65;;;;;;;-0.07;100.00;102703.75;4963331;28;20042;-76
2023/03/02 06:51:37;;;;;;;47.25;13.10;;;;;;;-0.03;100.00;102705.63;4959361;28;20481;-75
2023/03/02 06:54:05;;;;;;;47.92;15.02;;;;;;;0.02;100.00;102705.75;4972345;28;20396;-75
2023/03/02 06:56:31;;;;;;;50.95;13.32;;;;;;;0.02;100.00;102698.81;4992546;28;20113;-77
2023/03/02 06:58:57;;;;;;;43.05;14.43;;;;;;;0.04;100.00;102704.09;4992703;28;20072;-77
2023/03/02 07:01:22;;;;;;;48.40;15.15;;;;;;;0.05;100.00;102703.25;4994109;28;20096;-77
2023/03/02 07:03:48;;;;;;;45.80;15.48;;;;;;;0.04;100.00;102702.34;4979372;28;20089;-77
2023/03/02 07:06:13;;;;;;;49.72;14.10;;;;;;;0.05;100.00;102703.25;4992862;28;20038;-77
2023/03/02 07:08:40;;;;;;;48.85;14.40;;;;;;;0.04;100.00;102699.75;4974612;28;20400;-76
2023/03/02 07:11:10;;;;;;;46.25;13.77;;;;;;;0.04;100.00;102709.28;4970728;28;20033;-77
2023/03/02 07:13:39;;;;;;;47.63;15.57;;;;;;;-0.02;100.00;102703.06;4974725;28;20045;-77
2023/03/02 07:16:09;;;;;;;52.97;13.82;;;;;;;-0.02;100.00;102710.88;4972657;28;20053;-76
2023/03/02 07:18:35;;;;;;;56.10;15.27;;;;;;;-0.03;100.00;102709.13;4996844;28;20428;-75
2023/03/02 07:21:00;;;;;;;48.53;15.48;;;;;;;-0.01;100.00;102714.34;4969188;28;20050;-76
2023/03/02 07:23:26;;;;;;;44.50;14.40;;;;;;;0.02;100.00;102706.63;4993746;28;20034;-75
2023/03/02 07:25:51;;;;;;;53.10;15.02;;;;;;;0.05;100.00;102709.31;4993584;28;20042;-76
2023/03/02 07:28:17;;;;;;;52.75;16.23;;;;;;;0.06;100.00;102710.22;4962010;28;20389;-76
2023/03/02 07:30:42;;;;;;;49.33;15.27;;;;;;;0.03;100.00;102705.78;4997884;28;20033;-76
2023/03/02 07:33:08;;;;;;;47.92;14.80;;;;;;;-0.03;100.00;102703.91;4963630;28;20044;-76
2023/03/02 07:35:33;;;;;;;38.78;13.50;;;;;;;-0.05;100.00;102704.69;4997485;28;20033;-77
2023/03/02 07:37:59;;;;;;;45.30;14.18;;;;;;;-0.06;100.00;102706.41;4997563;28;20041;-77
2023/03/02 07:40:24;;;;;;;57.38;16.60;;;;;;;-0.07;100.00;102706.34;4976817;28;20069;-76
2023/03/02 07:42:50;;;;;;;48.10;15.07;;;;;;;-0.06;100.00;102705.53;4990890;28;20038;-77
2023/03/02 07:45:19;;;;;;;49.33;15.55;;;;;;;-0.03;100.00;102703.00;4996206;28;20213;-77
2023/03/02 07:47:44;;;;;;;47.08;14.68;;;;;;;-0.01;100.00;102704.81;4996854;28;20037;-77
2023/03/02 07:50:10;;;;;;;47.58;14.90;;;;;;;0.03;100.00;102705.78;4974646;28;20882;-76
2023/03/02 07:52:36;;;;;;;58.40;14.95;;;;;;;0.08;100.00;102706.81;4993860;28;20041;-76
2023/03/02 07:55:01;;;;;;;52.70;15.50;;;;;;;0.11;100.00;102714.69;4959781;28;20392;-76
2023/03/02 07:57:27;;;;;;;50.15;15.82;;;;;;;0.15;100.00;102707.84;4980054;28;20055;-77
2023/03/02 07:59:52;;;;;;;53.50;16.67;;;;;;;0.16;100.00;102706.13;4980029;28;20040;-77
2023/03/02 08:02:19;;;;;;;58.92;16.45;;;;;;;0.15;100.00;102705.25;4975505;28;20049;-77
2023/03/02 08:04:45;;;;;;;49.88;15.57;;;;;;;0.12;100.00;102700.81;4993313;28;20033;-77
2023/03/02 08:07:10;;;;;;;54.47;15.93;;;;;;;0.17;100.00;102708.81;5003484;28;20056;-77
2023/03/02 08:09:38;;;;;;;56.75;16.38;;;;;;;0.20;100.00;102702.75;4982096;28;22662;-76
2023/03/02 08:12:04;;;;;;;58.10;15.23;;;;;;;0.23;100.00;102701.13;4974293;28;20048;-77
2023/03/02 08:14:30;;;;;;;52.67;16.58;;;;;;;0.26;100.00;102706.44;4994306;28;20037;-76
2023/03/02 08:16:55;;;;;;;56.65;16.00;;;;;;;0.30;100.00;102707.41;4962113;28;20045;-76
2023/03/02 08:19:21;;;;;;;55.20;16.55;;;;;;;0.33;100.00;102704.00;4992223;28;20042;-76
2023/03/02 08:21:46;;;;;;;64.05;16.02;;;;;;;0.36;100.00;102699.75;5001585;28;20048;-76
2023/03/02 08:24:12;;;;;;;58.78;17.77;;;;;;;0.36;100.00;102702.34;4960110;28;20042;-76
2023/03/02 08:26:37;;;;;;;59.33;16.80;;;;;;;0.42;100.00;102703.38;4977663;28;20065;-76
2023/03/02 08:29:04;;;;;;;56.95;15.15;;;;;;;0.44;100.00;102699.06;4981592;28;20037;-75
2023/03/02 08:31:30;;;;;;;49.90;15.60;;;;;;;0.47;100.00;102701.75;5001649;28;20044;-76
2023/03/02 08:33:55;;;;;;;52.22;15.93;;;;;;;0.48;100.00;102701.78;5002102;28;22387;-76
2023/03/02 08:36:21;;;;;;;58.55;16.50;;;;;;;0.51;100.00;102695.78;5001239;28;20061;-76
2023/03/02 08:38:47;;;;;;;54.88;17.77;;;;;;;0.58;100.00;102702.03;4977838;28;20632;-76
2023/03/02 08:41:19;;;;;;;48.00;14.93;;;;;;;0.60;100.00;102709.06;4977243;28;20041;-76
2023/03/02 08:43:45;;;;;;;45.60;15.43;;;;;;;0.58;100.00;102705.53;4974429;28;20111;-76
2023/03/02 08:46:12;;;;;;;49.17;15.15;;;;;;;0.54;100.00;102703.66;4978507;28;20550;-79
2023/03/02 08:48:37;;;;;;;43.08;13.30;;;;;;;0.56;100.00;102704.63;4979392;28;20029;-75
2023/03/02 08:51:15;;;;;;;44.75;14.73;;;;;;;0.53;100.00;102702.81;4977995;28;20460;-76
2023/03/02 08:53:43;;;;;;;55.78;17.10;;;;;;;0.50;100.00;102694.03;4980995;28;20037;-76
2023/03/02 08:56:22;;;;;;;49.50;15.52;;;;;;;0.54;100.00;102698.47;4997327;28;20049;-76
2023/03/02 08:58:48;;;;;;;49.17;15.05;;;;;;;0.57;100.00;102697.66;5002317;28;20045;-76
2023/03/02 09:01:20;;;;;;;49.42;15.30;;;;;;;0.58;100.00;102689.88;4999690;28;20034;-76
2023/03/02 09:03:46;;;;;;;52.17;16.30;;;;;;;0.66;100.00;102695.31;5002866;28;20701;-75
2023/03/02 09:06:11;;;;;;;48.00;15.68;;;;;;;0.70;100.00;102697.13;4960375;28;20108;-75
2023/03/02 09:08:38;;;;;;;51.47;17.60;;;;;;;0.74;100.00;102692.88;4973624;28;20069;-76
2023/03/02 09:11:04;;;;;;;49.03;16.35;;;;;;;0.79;100.00;102702.59;4977265;28;20526;-75
2023/03/02 09:13:30;;;;;;;47.90;16.58;;;;;;;0.86;100.00;102695.81;4975346;28;20543;-75
2023/03/02 09:15:55;;;;;;;53.80;17.33;;;;;;;0.92;100.00;102701.16;5000538;28;20037;-75
2023/03/02 09:18:20;;;;;;;48.63;15.70;;;;;;;0.98;100.00;102699.56;4969343;28;20600;-76
2023/03/02 09:20:50;;;;;;;45.35;15.80;;;;;;;1.01;100.00;102694.41;4996555;28;20034;-76
2023/03/02 09:23:16;;;;;;;51.53;16.70;;;;;;;1.03;100.00;102703.19;4971967;28;20676;-76
2023/03/02 09:25:42;;;;;;;49.97;17.15;;;;;;;1.08;100.00;102709.38;4995091;28;20068;-76
2023/03/02 09:28:07;;;;;;;54.67;16.63;;;;;;;1.15;100.00;102707.81;4995159;28;20038;-76
2023/03/02 09:30:33;;;;;;;46.80;15.85;;;;;;;1.15;100.00;102697.38;4990502;28;20167;-75
2023/03/02 09:32:58;;;;;;;46.42;16.40;;;;;;;1.13;100.00;102699.94;4972686;28;20499;-76
2023/03/02 09:35:24;;;;;;;49.35;16.15;;;;;;;1.15;100.00;102689.53;4977277;28;20091;-75
2023/03/02 09:37:49;;;;;;;47.47;15.98;;;;;;;1.20;100.00;102694.00;4961295;28;20033;-76
2023/03/02 09:40:21;;;;;;;51.67;15.57;;;;;;;1.31;100.00;102690.78;4988671;28;20037;-75
2023/03/02 09:43:22;;;;;;;54.22;17.55;;;;;;;1.32;100.00;102687.31;4958488;28;20176;-75
2023/03/02 09:46:11;;;;;;;44.33;15.07;;;;;;;1.33;100.00;102696.91;4972074;28;20118;-75
2023/03/02 09:48:52;;;;;;;47.85;16.35;;;;;;;1.30;100.00;102702.94;4993921;28;20072;-75
2023/03/02 09:51:41;;;;;;;52.22;15.48;;;;;;;1.32;100.00;102695.16;4955599;28;20083;-75
2023/03/02 09:54:09;;;;;;;45.28;15.68;;;;;;;1.33;100.00;102689.06;4940703;28;20041;-75
2023/03/02 09:56:38;;;;;;;41.80;14.93;;;;;;;1.39;100.00;102693.53;4977033;28;20033;-75
2023/03/02 09:59:09;;;;;;;49.80;15.68;;;;;;;1.48;100.00;102694.63;4978071;28;20029;-75
2023/03/02 10:01:39;;;;;;;51.53;16.27;;;;;;;1.56;100.00;102696.53;4975958;28;20041;-75
2023/03/02 10:04:25;;;;;;;45.67;15.77;;;;;;;1.66;100.00;102690.66;4959661;28;20061;-75
2023/03/02 10:06:56;;;;;;;54.05;17.20;;;;;;;1.73;100.00;102692.56;4998471;28;20049;-75
2023/03/02 10:09:21;;;;;;;53.88;16.83;;;;;;;1.80;100.00;102687.47;4972800;28;20053;-75
2023/03/02 10:11:50;;;;;;;50.90;16.35;;;;;;;1.85;100.00;102693.69;4942961;28;20387;-75
2023/03/02 10:14:23;;;;;;;51.28;16.38;;;;;;;1.85;100.00;102691.94;4957091;28;20046;-75
2023/03/02 10:16:48;;;;;;;;;;;;;;;1.87;100.00;102695.44;4970591;28;20045;-75
2023/03/02 10:19:41;;;;;;;43.08;14.77;;;;;;;1.92;100.00;102698.19;4973340;28;19925;-75
2023/03/02 10:22:23;;;;;;;55.83;16.33;;;;;;;1.95;100.00;102693.00;4956670;28;20049;-74
2023/03/02 10:25:00;;;;;;;49.33;15.88;;;;;;;1.99;100.00;102693.94;4982073;28;20026;-74
2023/03/02 10:27:35;;;;;;;52.28;16.63;;;;;;;2.06;100.00;102690.59;4965932;28;20385;-74
2023/03/02 10:30:15;;;;;;;49.05;15.25;;;;;;;2.10;100.00;102692.44;4955911;28;20037;-74
2023/03/02 10:32:45;;;;;;;48.83;16.05;;;;;;;2.14;100.00;102696.00;4972727;28;20037;-75
2023/03/02 10:35:15;;;;;;;50.40;15.60;;;;;;;2.15;100.00;102688.19;4969273;28;20047;-75
2023/03/02 10:37:41;;;;;;;51.25;16.63;;;;;;;2.24;100.00;102684.84;4983106;28;20037;-75
2023/03/02 10:40:26;;;;;;;41.58;15.82;;;;;;;2.29;100.00;102682.34;4981488;28;20052;-75
2023/03/02 10:42:53;;;;;;;44.90;14.80;;;;;;;2.27;100.00;102689.25;4969297;28;20033;-75
2023/03/02 10:45:29;;;;;;;40.05;14.27;;;;;;;2.28;100.00;102684.06;4924525;28;20124;-75
2023/03/02 10:48:21;;;;;;;46.88;15.80;;;;;;;2.26;100.00;102687.50;4935586;28;21648;-75
2023/03/02 10:50:55;;;;;;;40.42;14.38;;;;;;;2.28;100.00;102686.69;4965319;28;20053;-76
2023/03/02 10:53:21;;;;;;;43.03;15.30;;;;;;;2.33;100.00;102688.50;4978898;28;21280;-75
2023/03/02 10:55:49;;;;;;;34.92;13.40;;;;;;;2.36;100.00;102688.56;4969213;28;20041;-75
2023/03/02 10:58:21;;;;;;;39.83;14.20;;;;;;;2.38;100.00;102689.44;4994217;28;20124;-75
2023/03/02 11:00:56;;;;;;;37.47;13.13;;;;;;;2.41;100.00;102692.13;4975087;28;20563;-76
2023/03/02 11:03:22;;;;;;;33.45;13.63;;;;;;;2.39;100.00;102688.63;4989692;28;20226;-75
2023/03/02 11:05:49;;;;;;;30.88;10.95;;;;;;;2.39;100.00;102681.66;4998117;28;20042;-75
2023/03/02 11:08:23;;;;;;;35.38;12.77;;;;;;;2.37;100.00;102682.47;4960116;28;20049;-75
2023/03/02 11:11:00;;;;;;;34.80;13.73;;;;;;;2.35;100.00;102677.22;4976982;28;20037;-75
2023/03/02 11:13:38;;;;;;;37.08;12.77;;;;;;;2.40;100.00;102677.31;4975828;28;20041;-76